Time;durP1;ratioP1;P1;durP2;ratioP2;P2;SDS_P1;SDS_P2;PMS_P1;PMS_P2;Temp;Humidity;BMP_temperature;BMP_pressure;BME280_temperature;BME280_humidity;BME280_pressure;Samples;Min_cycle;Max_cycle;Signal;HPM_P1;HPM_P2
2024/03/16 00:00:12;;;;;;;15.50;9.57;;;;;;;5.69;87.69;100770.81;5055977;28;20056;-59
2024/03/16 00:02:39;;;;;;;16.67;8.40;;;;;;;5.67;87.74;100770.28;5066886;28;20060;-58
2024/03/16 00:05:07;;;;;;;15.50;8.02;;;;;;;5.67;88.01;100782.09;5050525;28;20056;-56
2024/03/16 00:07:35;;;;;;;15.02;8.25;;;;;;;5.64;87.73;100781.94;5071227;28;20506;-57
2024/03/16 00:10:02;;;;;;;15.30;8.52;;;;;;;5.64;87.89;100792.91;5050963;28;20044;-57
2024/03/16 00:12:30;;;;;;;13.43;8.52;;;;;;;5.61;87.86;100793.53;5068107;28;20045;-56
2024/03/16 00:14:58;;;;;;;14.18;7.40;;;;;;;5.50;88.23;100793.78;5071597;28;20060;-58
2024/03/16 00:17:25;;;;;;;16.58;8.18;;;;;;;5.46;88.37;100792.75;5069905;28;20051;-56
2024/03/16 00:19:52;;;;;;;13.82;7.65;;;;;;;5.47;88.52;100802.63;5053295;28;20045;-57
2024/03/16 00:22:20;;;;;;;12.43;7.10;;;;;;;5.46;88.74;100805.66;5070676;28;20063;-58
2024/03/16 00:24:49;;;;;;;15.18;8.70;;;;;;;5.46;88.79;100811.16;5070798;28;20049;-58
2024/03/16 00:27:18;;;;;;;11.70;6.68;;;;;;;5.46;88.92;100809.22;5053010;28;20045;-58
2024/03/16 00:29:45;;;;;;;11.43;6.13;;;;;;;5.41;88.83;100809.34;5052208;28;20574;-60
2024/03/16 00:32:12;;;;;;;11.30;6.55;;;;;;;5.38;88.65;100807.22;5070758;28;20376;-58
2024/03/16 00:34:40;;;;;;;14.95;6.60;;;;;;;5.38;88.83;100807.22;5052898;28;20059;-58
2024/03/16 00:37:08;;;;;;;8.88;6.30;;;;;;;5.34;88.98;100811.72;5070579;28;20048;-54
2024/03/16 00:39:36;;;;;;;12.98;6.13;;;;;;;5.31;88.97;100809.59;5069561;28;20047;-57
2024/03/16 00:42:03;;;;;;;8.77;6.15;;;;;;;5.30;88.97;100820.84;5070284;28;20045;-57
2024/03/16 00:44:31;;;;;;;9.20;6.00;;;;;;;5.28;89.10;100815.69;5070563;28;20060;-57
2024/03/16 00:46:58;;;;;;;8.20;4.72;;;;;;;5.28;89.15;100817.63;5069712;28;20151;-55
2024/03/16 00:49:25;;;;;;;8.60;4.80;;;;;;;5.28;89.34;100823.09;5070094;28;20051;-56
2024/03/16 00:51:53;;;;;;;8.13;4.35;;;;;;;5.28;89.38;100817.63;5070631;28;20414;-57
2024/03/16 00:54:20;;;;;;;9.38;4.85;;;;;;;5.24;89.43;100814.66;5070222;28;20055;-55
2024/03/16 00:56:48;;;;;;;8.70;4.53;;;;;;;5.22;89.31;100819.66;5070091;28;20112;-57
2024/03/16 00:59:15;;;;;;;8.77;4.38;;;;;;;5.19;89.65;100820.28;5069748;28;20048;-55
2024/03/16 01:01:43;;;;;;;7.68;5.78;;;;;;;5.20;89.38;100824.66;5051946;28;20060;-60
2024/03/16 01:04:11;;;;;;;7.18;4.53;;;;;;;5.16;89.22;100814.59;5062254;28;20049;-55
2024/03/16 01:06:38;;;;;;;6.05;4.30;;;;;;;5.12;89.77;100819.88;5061699;28;20041;-58
2024/03/16 01:09:06;;;;;;;8.32;4.75;;;;;;;5.10;89.79;100822.13;5066072;28;20056;-58
2024/03/16 01:11:33;;;;;;;12.63;4.82;;;;;;;5.09;89.53;100819.69;5069326;28;20564;-57
2024/03/16 01:14:01;;;;;;;10.98;5.47;;;;;;;5.10;89.86;100821.31;5070136;28;20052;-57
2024/03/16 01:16:28;;;;;;;10.35;5.35;;;;;;;5.10;89.97;100819.38;5050817;28;20071;-57
2024/03/16 01:18:55;;;;;;;10.68;5.18;;;;;;;5.13;89.99;100815.22;5059770;28;20044;-56
2024/03/16 01:21:23;;;;;;;11.20;5.00;;;;;;;5.14;90.06;100822.31;5051583;28;20529;-56
2024/03/16 01:23:50;;;;;;;9.20;4.88;;;;;;;5.11;89.93;100822.94;5069405;28;20048;-58
2024/03/16 01:26:19;;;;;;;11.43;5.38;;;;;;;5.06;90.00;100820.28;5069423;28;20048;-58
2024/03/16 01:28:47;;;;;;;8.23;5.30;;;;;;;5.02;89.88;100822.84;5060981;28;20485;-57
2024/03/16 01:31:14;;;;;;;10.32;5.50;;;;;;;4.99;90.24;100812.47;5069354;28;20063;-58
2024/03/16 01:33:41;;;;;;;18.05;6.78;;;;;;;4.97;90.38;100820.22;5068776;28;20049;-58
2024/03/16 01:36:09;;;;;;;8.02;4.82;;;;;;;4.97;90.39;100822.13;5069025;28;20044;-58
2024/03/16 01:38:36;;;;;;;7.65;5.00;;;;;;;4.95;90.13;100824.38;5051330;28;20050;-58
2024/03/16 01:41:05;;;;;;;11.23;5.43;;;;;;;4.95;90.46;100825.16;5069267;28;20402;-56
2024/03/16 01:43:32;;;;;;;13.88;5.50;;;;;;;4.95;90.31;100825.16;5068199;28;20048;-58
2024/03/16 01:45:59;;;;;;;10.95;6.20;;;;;;;4.93;90.49;100828.22;5069190;28;20835;-57
2024/03/16 01:48:27;;;;;;;7.07;4.40;;;;;;;4.99;90.46;100839.91;5069031;28;20051;-58
2024/03/16 01:50:54;;;;;;;8.82;4.88;;;;;;;5.00;90.63;100838.00;5038155;28;20049;-58
2024/03/16 01:53:22;;;;;;;12.90;5.43;;;;;;;4.93;90.55;100839.19;5047327;28;20055;-57
2024/03/16 01:55:50;;;;;;;13.13;5.75;;;;;;;4.89;90.38;100845.63;5051299;28;20040;-59
2024/03/16 01:58:17;;;;;;;12.15;6.25;;;;;;;4.84;90.42;100838.28;5068296;28;20044;-58
2024/03/16 02:00:47;;;;;;;8.30;5.57;;;;;;;4.82;90.99;100837.78;5068313;28;20048;-56
2024/03/16 02:03:15;;;;;;;11.73;5.90;;;;;;;4.81;90.98;100836.16;5035381;28;20056;-58
2024/03/16 02:05:42;;;;;;;10.75;6.32;;;;;;;4.80;90.93;100833.72;5050611;28;20401;-57
2024/03/16 02:08:11;;;;;;;10.25;6.10;;;;;;;4.80;90.88;100842.75;5068879;28;20044;-58
2024/03/16 02:10:39;;;;;;;10.35;5.28;;;;;;;4.77;90.90;100837.88;5068279;28;20406;-57
2024/03/16 02:13:06;;;;;;;14.65;6.20;;;;;;;4.77;90.84;100842.53;5068254;28;20040;-55
2024/03/16 02:15:34;;;;;;;10.57;6.18;;;;;;;4.79;90.71;100837.59;5068807;28;20041;-60
2024/03/16 02:18:02;;;;;;;11.70;5.30;;;;;;;4.74;90.91;100835.75;5041540;28;20056;-59
2024/03/16 02:20:31;;;;;;;8.70;5.00;;;;;;;4.73;90.95;100830.56;5065041;28;20127;-55
2024/03/16 02:22:59;;;;;;;12.60;5.72;;;;;;;4.68;90.95;100827.94;5068392;28;20060;-56
2024/03/16 02:25:27;;;;;;;8.73;6.07;;;;;;;4.67;91.38;100840.00;5067650;28;20036;-58
2024/03/16 02:27:54;;;;;;;18.10;6.63;;;;;;;4.65;91.63;100842.25;5039531;28;20064;-57
2024/03/16 02:30:22;;;;;;;14.02;5.63;;;;;;;4.65;91.67;100837.59;5048607;28;20044;-58
2024/03/16 02:32:51;;;;;;;7.45;5.32;;;;;;;4.63;91.53;100836.25;5028519;28;20103;-57
2024/03/16 02:35:18;;;;;;;9.90;5.50;;;;;;;4.66;91.46;100827.44;5065840;28;20044;-58
2024/03/16 02:37:46;;;;;;;12.50;5.80;;;;;;;4.67;91.43;100823.56;5059274;28;20402;-57
2024/03/16 02:40:13;;;;;;;15.05;7.32;;;;;;;4.66;91.64;100821.94;5066606;28;20070;-57
2024/03/16 02:42:42;;;;;;;12.40;6.90;;;;;;;4.67;91.74;100813.41;5068171;28;20044;-56
2024/03/16 02:45:10;;;;;;;14.70;7.70;;;;;;;4.71;91.29;100810.88;5043902;28;20075;-58
2024/03/16 02:47:38;;;;;;;10.80;6.45;;;;;;;4.74;91.72;100812.97;5060689;28;20048;-58
2024/03/16 02:50:09;;;;;;;11.48;6.05;;;;;;;4.73;91.25;100801.22;5037057;28;20055;-57
2024/03/16 02:52:39;;;;;;;13.10;6.47;;;;;;;4.75;91.53;100798.97;5067923;28;20171;-57
2024/03/16 02:55:06;;;;;;;14.88;6.80;;;;;;;4.73;91.43;100806.72;5050459;28;20048;-58
2024/03/16 02:57:34;;;;;;;10.43;6.03;;;;;;;4.72;91.36;100804.25;5048993;28;20051;-58
2024/03/16 03:00:07;;;;;;;13.80;5.85;;;;;;;4.71;91.41;100808.94;5038337;28;20055;-59
2024/03/16 03:02:34;;;;;;;8.15;5.38;;;;;;;4.73;91.69;100811.38;5157796;22;20411;-61
2024/03/16 03:05:03;;;;;;;11.35;5.60;;;;;;;4.73;91.42;100814.94;5068090;28;20409;-61
2024/03/16 03:07:31;;;;;;;11.48;6.00;;;;;;;4.74;91.82;100815.72;5066917;28;20056;-61
2024/03/16 03:09:58;;;;;;;12.00;6.53;;;;;;;4.72;91.58;100810.56;5055489;28;20053;-61
2024/03/16 03:12:30;;;;;;;10.75;5.85;;;;;;;4.71;91.69;100808.94;5048515;28;20144;-61
2024/03/16 03:14:57;;;;;;;10.40;5.78;;;;;;;4.72;91.73;100796.84;5048352;28;20060;-61
2024/03/16 03:17:25;;;;;;;10.77;6.05;;;;;;;4.73;92.01;100800.41;5046890;28;20057;-61
2024/03/16 03:19:52;;;;;;;11.95;7.35;;;;;;;4.72;91.84;100802.34;5047960;28;20052;-61
2024/03/16 03:22:20;;;;;;;15.80;6.40;;;;;;;4.68;91.96;100808.75;5048294;28;20057;-61
2024/03/16 03:24:47;;;;;;;14.20;6.53;;;;;;;4.69;92.15;100813.09;5048085;28;20056;-61
2024/03/16 03:27:14;;;;;;;11.63;6.32;;;;;;;4.67;91.96;100812.59;5046622;28;20044;-61
2024/03/16 03:29:42;;;;;;;12.00;7.40;;;;;;;4.66;91.95;100813.72;5048393;28;20057;-60
2024/03/16 03:32:09;;;;;;;12.93;6.88;;;;;;;4.64;92.19;100824.97;5048029;28;20418;-60
2024/03/16 03:34:36;;;;;;;12.88;6.35;;;;;;;4.62;92.22;100820.91;5047843;28;20049;-60
2024/03/16 03:37:04;;;;;;;18.30;7.32;;;;;;;4.61;92.22;100830.25;5047049;28;20143;-61
2024/03/16 03:39:31;;;;;;;11.15;6.40;;;;;;;4.60;92.50;100829.47;5045900;28;20045;-61
2024/03/16 03:41:59;;;;;;;11.40;5.55;;;;;;;4.57;92.57;100830.06;5047660;28;20048;-61
2024/03/16 03:44:36;;;;;;;13.77;6.70;;;;;;;4.55;92.61;100832.28;5047952;28;20056;-61
2024/03/16 03:47:04;;;;;;;9.10;5.80;;;;;;;4.55;93.00;100836.97;5047838;28;20060;-61
2024/03/16 03:49:36;;;;;;;14.50;6.28;;;;;;;4.54;92.49;100832.59;5046358;28;20045;-61
2024/03/16 03:52:03;;;;;;;12.93;6.20;;;;;;;4.52;92.42;100832.09;5051752;28;20052;-61
2024/03/16 03:54:33;;;;;;;7.97;5.28;;;;;;;4.53;92.93;100829.03;5067711;28;20045;-61
2024/03/16 03:57:01;;;;;;;9.13;5.72;;;;;;;4.53;92.92;100825.47;5068027;28;20059;-61
2024/03/16 03:59:28;;;;;;;13.73;5.00;;;;;;;4.52;93.12;100821.13;5067884;28;20051;-61
2024/03/16 04:01:55;;;;;;;13.05;6.45;;;;;;;4.52;93.11;100816.44;5067529;28;20608;-61
2024/03/16 04:04:24;;;;;;;15.27;5.70;;;;;;;4.53;93.13;100809.84;5068150;28;20137;-60
2024/03/16 04:06:51;;;;;;;13.20;5.25;;;;;;;4.56;93.50;100819.38;5057401;28;20048;-61
2024/03/16 04:09:19;;;;;;;10.68;4.63;;;;;;;4.57;93.22;100812.78;5053312;28;20045;-61
2024/03/16 04:11:46;;;;;;;10.98;3.90;;;;;;;4.58;92.96;100815.22;5067869;28;20056;-61
2024/03/16 04:14:14;;;;;;;11.85;3.95;;;;;;;4.57;93.26;100821.00;5066798;28;20079;-62
2024/03/16 04:16:42;;;;;;;9.32;2.83;;;;;;;4.59;93.39;100822.34;5067699;28;20061;-61
2024/03/16 04:19:10;;;;;;;3.63;2.55;;;;;;;4.58;93.57;100815.22;5066238;28;20414;-61
2024/03/16 04:21:37;;;;;;;4.50;3.17;;;;;;;4.63;93.58;100817.06;5066863;28;20055;-61
2024/03/16 04:24:05;;;;;;;8.60;2.75;;;;;;;4.64;93.58;100813.19;5067918;28;20049;-61
2024/03/16 04:26:33;;;;;;;7.50;5.15;;;;;;;4.62;93.33;100812.69;5067548;28;20498;-61
2024/03/16 04:29:01;;;;;;;4.85;2.30;;;;;;;4.63;93.54;100812.38;5066303;28;20053;-61
2024/03/16 04:31:28;;;;;;;10.75;3.95;;;;;;;4.64;93.36;100824.16;5065983;28;20051;-61
2024/03/16 04:33:55;;;;;;;5.43;2.72;;;;;;;4.62;93.47;100821.72;5066765;28;20532;-61
2024/03/16 04:36:23;;;;;;;5.90;1.92;;;;;;;4.61;93.54;100816.53;5066314;28;20787;-61
2024/03/16 04:38:50;;;;;;;6.32;2.22;;;;;;;4.60;93.56;100815.75;5051366;28;20053;-61
2024/03/16 04:41:19;;;;;;;5.72;2.20;;;;;;;4.59;93.97;100807.81;5058369;28;20142;-61
2024/03/16 04:43:47;;;;;;;6.20;2.60;;;;;;;4.58;93.93;100806.19;5066319;28;20514;-61
2024/03/16 04:46:14;;;;;;;10.00;2.67;;;;;;;4.57;93.99;100807.31;5067268;28;20060;-61
2024/03/16 04:48:42;;;;;;;7.85;2.10;;;;;;;4.57;94.34;100812.78;5066617;28;20045;-61
2024/03/16 04:51:09;;;;;;;3.67;2.10;;;;;;;4.58;93.90;100804.25;5068200;28;20040;-59
2024/03/16 04:53:39;;;;;;;5.72;2.10;;;;;;;4.61;93.88;100813.78;5069134;28;20106;-61
2024/03/16 04:56:06;;;;;;;5.53;1.83;;;;;;;4.63;94.14;100812.38;5070695;28;20505;-61
2024/03/16 04:58:34;;;;;;;7.18;1.75;;;;;;;4.64;94.21;100813.19;5070139;28;20045;-61
2024/03/16 05:01:02;;;;;;;5.82;2.42;;;;;;;4.63;93.80;100806.88;5069271;28;20048;-61
2024/03/16 05:03:29;;;;;;;6.68;1.98;;;;;;;4.64;94.31;100807.72;5068536;28;20040;-61
2024/03/16 05:05:57;;;;;;;6.20;1.80;;;;;;;4.62;94.19;100802.53;5061136;28;20056;-61
2024/03/16 05:08:24;;;;;;;4.68;1.90;;;;;;;4.61;94.07;100792.69;5069969;28;20536;-61
2024/03/16 05:10:51;;;;;;;4.55;1.65;;;;;;;4.61;94.20;100797.34;5069526;28;20048;-61
2024/03/16 05:13:19;;;;;;;7.07;1.77;;;;;;;4.63;94.46;100806.88;5052023;28;20063;-61
2024/03/16 05:15:46;;;;;;;8.10;1.85;;;;;;;4.62;94.66;100804.47;5069846;28;20460;-61
2024/03/16 05:18:14;;;;;;;9.15;1.50;;;;;;;4.62;94.60;100816.25;5069881;28;20052;-61
2024/03/16 05:20:41;;;;;;;7.20;1.88;;;;;;;4.63;94.69;100809.63;5068371;28;20044;-61
2024/03/16 05:23:09;;;;;;;7.63;1.45;;;;;;;4.65;95.14;100798.38;5068388;28;20409;-61
2024/03/16 05:25:38;;;;;;;6.85;1.60;;;;;;;4.65;94.99;100801.13;5070028;28;20064;-61
2024/03/16 05:28:05;;;;;;;2.85;1.70;;;;;;;4.66;95.21;100808.25;5069985;28;20406;-61
2024/03/16 05:30:33;;;;;;;5.55;1.73;;;;;;;4.67;95.29;100807.91;5068781;28;20516;-61
2024/03/16 05:33:00;;;;;;;7.30;1.98;;;;;;;4.69;95.52;100805.69;5056731;28;20056;-61
2024/03/16 05:35:30;;;;;;;9.30;1.50;;;;;;;4.72;95.34;100798.78;5055361;28;20048;-61
2024/03/16 05:37:57;;;;;;;5.15;1.80;;;;;;;4.74;95.64;100800.09;5069518;28;20036;-61
2024/03/16 05:40:24;;;;;;;5.88;2.08;;;;;;;4.74;95.36;100797.34;5069340;28;20405;-61
2024/03/16 05:42:52;;;;;;;6.10;2.03;;;;;;;4.75;95.38;100795.41;5069527;28;20052;-61
2024/03/16 05:45:19;;;;;;;6.43;1.77;;;;;;;4.75;95.62;100795.41;5068690;28;20049;-61
2024/03/16 05:47:47;;;;;;;3.03;1.20;;;;;;;4.75;95.48;100792.69;5067747;28;20075;-61
2024/03/16 05:50:14;;;;;;;2.97;1.85;;;;;;;4.77;95.50;100790.44;5069653;28;20055;-60
2024/03/16 05:52:41;;;;;;;5.03;1.40;;;;;;;4.78;96.01;100783.84;5068984;28;20502;-60
2024/03/16 05:55:09;;;;;;;7.13;1.70;;;;;;;4.79;95.64;100788.22;5069407;28;20048;-61
2024/03/16 05:57:36;;;;;;;5.38;1.33;;;;;;;4.82;96.13;100782.09;5069477;28;20048;-61
2024/03/16 06:00:13;;;;;;;3.25;1.10;;;;;;;4.83;96.37;100786.47;5069066;28;20056;-60
2024/03/16 06:02:41;;;;;;;4.15;1.42;;;;;;;4.84;96.09;100785.38;5066392;28;20048;-60
2024/03/16 06:05:09;;;;;;;4.20;1.13;;;;;;;4.87;96.18;100780.06;5067423;28;20055;-61
2024/03/16 06:07:37;;;;;;;7.95;1.20;;;;;;;4.88;96.25;100781.72;5067380;28;20067;-61
2024/03/16 06:10:09;;;;;;;5.53;1.15;;;;;;;4.89;96.44;100788.00;5069275;28;20052;-60
2024/03/16 06:12:37;;;;;;;3.67;1.05;;;;;;;4.90;96.63;100795.09;5067318;28;20052;-61
2024/03/16 06:15:08;;;;;;;7.43;2.08;;;;;;;4.90;96.66;100800.59;5068255;28;20064;-60
2024/03/16 06:17:36;;;;;;;11.00;1.85;;;;;;;4.90;96.53;100789.63;5068359;28;20048;-61
2024/03/16 06:20:05;;;;;;;8.73;2.63;;;;;;;4.93;96.81;100789.00;5067746;28;20048;-61
2024/03/16 06:22:32;;;;;;;12.13;1.83;;;;;;;4.98;97.05;100788.09;5055771;28;20047;-60
2024/03/16 06:25:00;;;;;;;3.10;1.20;;;;;;;5.02;96.94;100792.66;5066656;28;20565;-60
2024/03/16 06:27:27;;;;;;;7.95;1.65;;;;;;;5.08;97.17;100790.63;5067070;28;20075;-61
2024/03/16 06:29:57;;;;;;;7.43;1.17;;;;;;;5.14;97.12;100789.38;5067032;28;20506;-61
2024/03/16 06:32:24;;;;;;;8.90;2.42;;;;;;;5.19;97.28;100781.84;5068756;28;20375;-59
2024/03/16 06:34:53;;;;;;;5.30;1.20;;;;;;;5.27;97.37;100788.56;5067938;28;20056;-60
2024/03/16 06:37:20;;;;;;;9.32;1.50;;;;;;;5.32;97.17;100791.97;5068316;28;20044;-59
2024/03/16 06:39:48;;;;;;;7.00;1.55;;;;;;;5.38;97.10;100788.00;5066967;28;20060;-61
2024/03/16 06:42:15;;;;;;;8.35;1.73;;;;;;;5.43;97.28;100782.38;5068157;28;20040;-59
2024/03/16 06:44:43;;;;;;;10.68;1.80;;;;;;;5.48;97.12;100789.72;5067860;28;20432;-60
2024/03/16 06:47:10;;;;;;;5.40;1.80;;;;;;;5.50;97.35;100780.06;5067920;28;20052;-60
2024/03/16 06:49:37;;;;;;;7.85;1.70;;;;;;;5.54;97.51;100785.72;5067854;28;20036;-59
2024/03/16 06:52:05;;;;;;;5.20;1.63;;;;;;;5.59;97.63;100782.06;5068010;28;20040;-60
2024/03/16 06:54:32;;;;;;;7.43;1.63;;;;;;;5.62;97.77;100784.16;5068108;28;20048;-61
2024/03/16 06:57:00;;;;;;;6.97;2.78;;;;;;;5.64;97.85;100782.72;5068297;28;20052;-59
2024/03/16 06:59:27;;;;;;;5.32;1.75;;;;;;;5.69;98.01;100785.38;5054411;28;20055;-61
2024/03/16 07:01:54;;;;;;;14.30;3.30;;;;;;;5.73;98.00;100785.53;5067435;28;20204;-61
2024/03/16 07:04:22;;;;;;;7.85;2.00;;;;;;;5.76;98.07;100790.41;5054887;28;20056;-60
2024/03/16 07:06:49;;;;;;;12.05;3.92;;;;;;;5.79;98.09;100789.78;5067479;28;20059;-60
2024/03/16 07:09:18;;;;;;;10.52;3.40;;;;;;;5.84;98.31;100778.69;5067455;28;20059;-61
2024/03/16 07:11:46;;;;;;;9.35;4.57;;;;;;;5.88;98.43;100782.44;5068178;28;20063;-61
2024/03/16 07:14:15;;;;;;;7.35;2.13;;;;;;;5.92;98.35;100777.97;5067365;28;20052;-60
2024/03/16 07:16:42;;;;;;;8.00;2.15;;;;;;;5.96;98.54;100784.44;5068169;28;20433;-60
2024/03/16 07:19:09;;;;;;;7.13;2.45;;;;;;;5.99;98.39;100778.31;5067583;28;20056;-60
2024/03/16 07:21:37;;;;;;;8.73;3.15;;;;;;;6.03;99.01;100782.88;5065617;28;20067;-60
2024/03/16 07:24:05;;;;;;;13.98;3.72;;;;;;;6.04;98.97;100779.00;5067965;28;20063;-60
2024/03/16 07:26:32;;;;;;;12.63;5.65;;;;;;;6.06;99.01;100784.19;5065773;28;20055;-61
2024/03/16 07:29:00;;;;;;;9.80;4.90;;;;;;;6.09;99.46;100784.34;5055139;28;20045;-60
2024/03/16 07:31:27;;;;;;;4.50;2.15;;;;;;;6.12;99.49;100778.25;5067175;28;20082;-61
2024/03/16 07:33:54;;;;;;;8.85;3.92;;;;;;;6.15;99.89;100782.28;5067506;28;20048;-60
2024/03/16 07:36:24;;;;;;;14.30;4.05;;;;;;;6.18;99.72;100770.69;5065853;28;20060;-60
2024/03/16 07:38:53;;;;;;;21.80;5.10;;;;;;;6.20;100.00;100765.66;5056691;28;20068;-58
2024/03/16 07:41:20;;;;;;;9.30;3.97;;;;;;;6.23;100.00;100767.78;5066149;28;20063;-61
2024/03/16 07:43:47;;;;;;;8.32;2.38;;;;;;;6.26;100.00;100769.09;5067250;28;20060;-60
2024/03/16 07:46:15;;;;;;;11.82;3.13;;;;;;;6.30;100.00;100762.63;5067072;28;20056;-60
2024/03/16 07:48:42;;;;;;;7.40;2.30;;;;;;;6.32;100.00;100757.66;5067485;28;20390;-59
2024/03/16 07:51:12;;;;;;;7.82;3.00;;;;;;;6.35;100.00;100753.47;5067253;28;20044;-58
2024/03/16 07:53:41;;;;;;;13.70;4.32;;;;;;;6.40;100.00;100751.38;5067040;28;20453;-57
2024/03/16 07:56:11;;;;;;;33.78;10.15;;;;;;;6.45;100.00;100753.19;5067323;28;20546;-58
2024/03/16 07:58:38;;;;;;;37.40;11.20;;;;;;;6.49;100.00;100757.72;5067440;28;20056;-58
2024/03/16 08:01:06;;;;;;;32.92;13.88;;;;;;;6.52;100.00;100759.84;5065546;28;20041;-57
2024/03/16 08:03:33;;;;;;;43.00;15.15;;;;;;;6.54;100.00;100757.56;5065465;28;20401;-59
2024/03/16 08:06:06;;;;;;;42.83;14.38;;;;;;;6.58;100.00;100755.00;5067196;28;20056;-58
2024/03/16 08:08:34;;;;;;;24.83;8.02;;;;;;;6.62;100.00;100740.28;5067105;28;20044;-60
2024/03/16 08:11:04;;;;;;;26.80;10.18;;;;;;;6.67;100.00;100751.13;5066322;28;20045;-59
2024/03/16 08:13:31;;;;;;;18.92;6.85;;;;;;;6.72;100.00;100745.50;5067229;28;20898;-60
2024/03/16 08:15:59;;;;;;;25.80;9.25;;;;;;;6.77;100.00;100754.75;5052447;28;20067;-58
2024/03/16 08:18:26;;;;;;;14.50;4.28;;;;;;;6.81;100.00;100752.97;5065673;28;20064;-60
2024/03/16 08:21:00;;;;;;;10.10;4.13;;;;;;;6.84;100.00;100738.56;5066945;28;20371;-58
2024/03/16 08:23:29;;;;;;;11.77;3.17;;;;;;;6.89;100.00;100746.66;5066707;28;20063;-60
2024/03/16 08:25:56;;;;;;;7.18;2.42;;;;;;;6.94;100.00;100744.56;5068094;28;20055;-58
2024/03/16 08:28:23;;;;;;;14.77;4.10;;;;;;;6.99;100.00;100741.66;5068952;28;20040;-58
2024/03/16 08:30:51;;;;;;;10.85;2.15;;;;;;;7.03;100.00;100744.59;5069247;28;20409;-58
2024/03/16 08:33:18;;;;;;;10.57;3.22;;;;;;;7.07;100.00;100737.34;5070780;28;20053;-60
2024/03/16 08:35:46;;;;;;;11.48;2.30;;;;;;;7.11;100.00;100743.81;5070728;28;20040;-58
2024/03/16 08:38:13;;;;;;;6.93;2.38;;;;;;;7.12;100.00;100732.44;5068802;28;20052;-60
2024/03/16 08:40:40;;;;;;;8.50;2.42;;;;;;;7.13;100.00;100736.03;5069556;28;20048;-58
2024/03/16 08:43:08;;;;;;;6.68;2.08;;;;;;;7.13;100.00;100741.53;5069097;28;20059;-58
2024/03/16 08:45:35;;;;;;;8.20;2.03;;;;;;;7.12;100.00;100740.72;5070212;28;20056;-59
2024/03/16 08:48:03;;;;;;;12.82;2.30;;;;;;;7.13;100.00;100741.53;5070706;28;20494;-59
2024/03/16 08:50:30;;;;;;;20.05;4.03;;;;;;;7.14;100.00;100740.41;5071254;28;20054;-60
2024/03/16 08:52:58;;;;;;;20.33;6.85;;;;;;;7.14;100.00;100726.66;5068897;28;20071;-60
2024/03/16 08:55:25;;;;;;;13.02;3.60;;;;;;;7.15;100.00;100728.25;5070262;28;20053;-59
2024/03/16 08:57:53;;;;;;;7.72;2.33;;;;;;;7.16;100.00;100736.19;5070222;28;20579;-60
2024/03/16 09:00:21;;;;;;;12.15;2.92;;;;;;;7.17;100.00;100732.31;5067799;28;20048;-61
2024/03/16 09:02:50;;;;;;;7.78;2.10;;;;;;;7.18;100.00;100730.34;5069548;28;20048;-60
2024/03/16 09:05:18;;;;;;;11.95;2.97;;;;;;;7.18;100.00;100722.91;5070840;28;20049;-60
2024/03/16 09:07:46;;;;;;;16.23;2.90;;;;;;;7.19;100.00;100723.72;5069749;28;20064;-59
2024/03/16 09:10:17;;;;;;;17.13;3.25;;;;;;;7.19;100.00;100734.75;5068321;28;20529;-58
2024/03/16 09:12:46;;;;;;;17.55;2.72;;;;;;;7.20;100.00;100730.88;5057290;28;20414;-57
2024/03/16 09:15:15;;;;;;;16.00;2.95;;;;;;;7.19;100.00;100723.72;5070191;28;20502;-57
2024/03/16 09:17:43;;;;;;;19.50;3.97;;;;;;;7.20;100.00;100719.84;5069704;28;20056;-56
2024/03/16 09:20:10;;;;;;;9.68;2.70;;;;;;;7.20;100.00;100725.38;5069962;28;20045;-56
2024/03/16 09:22:38;;;;;;;10.32;2.60;;;;;;;7.19;100.00;100729.25;5069053;28;20083;-55
2024/03/16 09:25:08;;;;;;;12.80;3.10;;;;;;;7.20;100.00;100725.38;5069893;28;20049;-56
2024/03/16 09:27:36;;;;;;;19.48;3.38;;;;;;;7.20;100.00;100719.84;5069530;28;20564;-56
2024/03/16 09:30:06;;;;;;;9.60;3.20;;;;;;;7.20;100.00;100709.63;5069547;28;20049;-56
2024/03/16 09:32:34;;;;;;;15.93;3.95;;;;;;;7.20;100.00;100708.84;5059268;28;20049;-57
2024/03/16 09:35:04;;;;;;;14.10;3.92;;;;;;;7.21;100.00;100703.00;5067064;28;20552;-56
2024/03/16 09:37:32;;;;;;;17.00;3.50;;;;;;;7.23;100.00;100708.16;5059794;28;20510;-58
2024/03/16 09:39:59;;;;;;;14.68;3.13;;;;;;;7.24;100.00;100713.38;5068751;28;20051;-58
2024/03/16 09:42:28;;;;;;;18.23;3.95;;;;;;;7.27;100.00;100698.13;5067474;28;20756;-61
2024/03/16 09:44:57;;;;;;;24.52;5.20;;;;;;;7.29;100.00;100695.88;5069670;28;20112;-58
2024/03/16 09:47:25;;;;;;;10.63;2.97;;;;;;;7.31;100.00;100701.84;5051767;28;20057;-57
2024/03/16 09:49:52;;;;;;;18.67;3.85;;;;;;;7.32;100.00;100693.28;5021917;28;20693;-55
2024/03/16 09:52:20;;;;;;;12.70;3.92;;;;;;;7.35;100.00;100697.34;5066907;28;20052;-56
2024/03/16 09:54:47;;;;;;;14.45;3.60;;;;;;;7.35;100.00;100700.91;5067057;28;20064;-54
2024/03/16 09:57:15;;;;;;;15.73;3.53;;;;;;;7.39;100.00;100706.56;5067597;28;20032;-56
2024/03/16 09:59:48;;;;;;;26.48;5.93;;;;;;;7.41;100.00;100697.97;5067148;28;20652;-54
2024/03/16 10:02:21;;;;;;;17.58;3.95;;;;;;;7.44;100.00;100700.88;5050431;28;20052;-57
2024/03/16 10:04:48;;;;;;;17.38;3.47;;;;;;;7.47;100.00;100693.91;5055306;28;20060;-56
2024/03/16 10:07:15;;;;;;;15.35;5.35;;;;;;;7.48;100.00;100679.81;5066720;28;20406;-55
2024/03/16 10:09:52;;;;;;;15.18;3.97;;;;;;;7.51;100.00;100681.94;5067144;28;20620;-55
2024/03/16 10:12:20;;;;;;;18.25;3.72;;;;;;;7.53;100.00;100674.13;5049697;28;20055;-57
2024/03/16 10:15:00;;;;;;;18.10;3.92;;;;;;;7.57;100.00;100668.78;5066142;28;20052;-55
2024/03/16 10:17:29;;;;;;;17.50;4.38;;;;;;;7.58;100.00;100676.72;5066729;28;20123;-58
2024/03/16 10:19:56;;;;;;;22.60;3.97;;;;;;;7.59;100.00;100667.34;5047240;28;20049;-55
2024/03/16 10:22:23;;;;;;;19.67;4.05;;;;;;;7.63;100.00;100667.47;5065504;28;20410;-57
2024/03/16 10:24:51;;;;;;;17.40;4.93;;;;;;;7.64;100.00;100661.66;5067729;28;20088;-55
2024/03/16 10:27:18;;;;;;;20.40;3.63;;;;;;;7.68;100.00;100670.03;5047004;28;20041;-57
2024/03/16 10:29:44;;;;;;;14.35;2.78;;;;;;;7.71;100.00;100659.19;5066291;28;20052;-57
2024/03/16 10:32:11;;;;;;;10.57;2.88;;;;;;;7.76;100.00;100666.47;5066870;28;20048;-55
2024/03/16 10:34:37;;;;;;;7.38;1.80;;;;;;;7.80;100.00;100654.47;5049234;28;20410;-57
2024/03/16 10:37:05;;;;;;;12.77;3.47;;;;;;;7.86;100.00;100650.38;5066118;28;20040;-54
2024/03/16 10:39:35;;;;;;;12.98;3.20;;;;;;;7.91;100.00;100644.72;5066146;28;20620;-62
2024/03/16 10:42:04;;;;;;;9.32;2.47;;;;;;;7.97;100.00;100651.66;5053915;28;20417;-59
2024/03/16 10:44:31;;;;;;;6.50;2.95;;;;;;;8.03;100.00;100654.22;5065325;28;20051;-57
2024/03/16 10:46:57;;;;;;;5.35;1.98;;;;;;;8.05;100.00;100647.22;5064547;28;20741;-57
2024/03/16 10:49:23;;;;;;;5.28;1.73;;;;;;;8.08;100.00;100648.50;5065755;28;20061;-56
2024/03/16 10:51:49;;;;;;;11.63;2.38;;;;;;;8.10;100.00;100651.78;5065457;28;20044;-56
2024/03/16 10:54:18;;;;;;;7.28;1.60;;;;;;;8.12;100.00;100652.25;5065971;28;20044;-56
2024/03/16 10:56:45;;;;;;;4.50;1.63;;;;;;;8.15;100.00;100654.34;5066266;28;20044;-56
2024/03/16 10:59:29;;;;;;;7.15;2.47;;;;;;;8.15;100.00;100651.59;5066003;28;20056;-57
2024/03/16 11:01:56;;;;;;;7.95;1.75;;;;;;;8.13;100.00;100654.66;5046304;28;20061;-56
2024/03/16 11:04:22;;;;;;;7.03;2.30;;;;;;;8.12;100.00;100663.28;5049364;28;20037;-54
2024/03/16 11:06:48;;;;;;;4.85;1.30;;;;;;;8.09;100.00;100659.22;5062375;28;20052;-59
2024/03/16 11:09:32;;;;;;;7.43;1.52;;;;;;;8.08;100.00;100665.88;5060736;28;20049;-58
2024/03/16 11:12:00;;;;;;;5.45;1.33;;;;;;;8.05;100.00;100668.50;5043879;28;20063;-56
2024/03/16 11:14:27;;;;;;;6.63;1.20;;;;;;;8.02;100.00;100664.47;5049405;28;20056;-60
2024/03/16 11:16:53;;;;;;;3.50;1.08;;;;;;;7.99;100.00;100663.16;5065737;28;20048;-57
2024/03/16 11:19:23;;;;;;;8.30;1.08;;;;;;;7.98;100.00;100642.25;5065779;28;20044;-54
2024/03/16 11:21:54;;;;;;;8.60;1.50;;;;;;;7.99;100.00;100635.56;5066566;28;20757;-57
2024/03/16 11:24:21;;;;;;;6.95;1.10;;;;;;;7.99;100.00;100643.06;5046137;28;20549;-57
2024/03/16 11:26:49;;;;;;;4.47;1.42;;;;;;;7.98;100.00;100625.72;5044814;28;20059;-57
2024/03/16 11:29:21;;;;;;;4.65;1.10;;;;;;;7.97;100.00;100621.31;5044901;28;20521;-57